createdAt,value
2019-06-15T00:00:12.019Z,19.67
2019-06-15T00:02:40.726Z,18.20
2019-06-15T00:05:10.452Z,17.20
2019-06-15T00:07:42.177Z,14.33
2019-06-15T00:10:10.924Z,17.50
2019-06-15T00:12:39.605Z,16.53
2019-06-15T00:15:11.510Z,18.77
2019-06-15T00:17:40.222Z,14.97
2019-06-15T00:20:10.367Z,16.10
2019-06-15T00:22:40.237Z,16.23
2019-06-15T00:25:10.388Z,13.47
2019-06-15T00:27:41.784Z,19.00
2019-06-15T00:30:11.246Z,17.60
2019-06-15T00:32:40.177Z,19.30
2019-06-15T00:35:10.690Z,15.03
2019-06-15T00:37:39.403Z,19.57
2019-06-15T00:40:09.873Z,17.37
2019-06-15T00:42:38.418Z,27.43
2019-06-15T00:45:10.717Z,17.10
2019-06-15T00:47:39.355Z,18.47
2019-06-15T00:50:08.982Z,19.13
2019-06-15T00:52:38.140Z,17.50
2019-06-15T00:55:08.632Z,15.33
2019-06-15T00:57:40.328Z,18.53
2019-06-15T01:00:11.122Z,17.93
2019-06-15T01:02:39.774Z,17.77
2019-06-15T01:05:09.244Z,18.87
2019-06-15T01:07:37.898Z,15.37
2019-06-15T01:10:08.163Z,15.93
2019-06-15T01:12:36.919Z,15.93
2019-06-15T01:15:06.803Z,19.63
2019-06-15T01:17:37.882Z,13.47
2019-06-15T01:20:07.952Z,14.07
2019-06-15T01:22:39.263Z,16.43
2019-06-15T01:25:10.436Z,15.83
2019-06-15T01:27:41.812Z,14.30
2019-06-15T01:30:12.777Z,17.93
2019-06-15T01:32:41.485Z,18.77
2019-06-15T01:35:10.678Z,19.57
2019-06-15T01:37:39.717Z,18.30
2019-06-15T01:40:10.257Z,17.93
2019-06-15T01:42:40.378Z,17.20
2019-06-15T01:45:12.311Z,21.00
2019-06-15T01:47:40.981Z,13.43
2019-06-15T01:50:09.940Z,14.03
2019-06-15T01:52:38.917Z,19.13
2019-06-15T01:55:20.093Z,17.23
2019-06-15T01:57:38.671Z,12.90
2019-06-15T02:00:08.206Z,16.77
2019-06-15T02:02:36.968Z,16.57
2019-06-15T02:05:07.606Z,14.43
2019-06-15T02:07:36.523Z,14.60
2019-06-15T02:10:08.206Z,16.07
2019-06-15T02:12:36.943Z,17.17
2019-06-15T02:15:07.480Z,17.43
2019-06-15T02:17:36.190Z,20.03
2019-06-15T02:20:07.005Z,16.87
2019-06-15T02:22:35.662Z,17.10
2019-06-15T02:25:06.148Z,16.50
2019-06-15T02:27:34.893Z,17.83
2019-06-15T02:30:04.662Z,18.50
2019-06-15T02:32:33.619Z,16.27
2019-06-15T02:35:02.395Z,20.87
2019-06-15T02:37:31.112Z,18.97
2019-06-15T02:39:59.836Z,18.87
2019-06-15T02:42:28.496Z,18.40
2019-06-15T02:44:57.266Z,28.30
2019-06-15T02:47:25.913Z,28.43
2019-06-15T02:49:54.601Z,39.27
2019-06-15T02:52:23.837Z,24.83
2019-06-15T02:54:52.575Z,34.53
2019-06-15T02:57:21.999Z,30.70
2019-06-15T02:59:50.723Z,35.43
2019-06-15T03:02:19.396Z,32.97
2019-06-15T03:04:48.058Z,36.53
2019-06-15T03:07:16.713Z,34.60
2019-06-15T03:09:45.391Z,36.53
2019-06-15T03:12:14.044Z,39.67
2019-06-15T03:14:43.893Z,37.10
2019-06-15T03:17:12.549Z,34.73
2019-06-15T03:19:41.541Z,39.60
2019-06-15T03:22:10.215Z,36.83
2019-06-15T03:24:40.382Z,37.00
2019-06-15T03:27:12.303Z,36.20
2019-06-15T03:29:40.960Z,34.97
2019-06-15T03:32:09.614Z,38.20
2019-06-15T03:34:41.066Z,36.60
2019-06-15T03:37:09.896Z,33.60
2019-06-15T03:39:39.171Z,43.50
2019-06-15T03:42:07.832Z,41.60
2019-06-15T03:44:39.236Z,42.70
2019-06-15T03:47:07.919Z,35.87
2019-06-15T03:49:39.471Z,31.70
2019-06-15T03:52:09.580Z,37.93
2019-06-15T03:54:41.421Z,40.00
2019-06-15T03:57:10.132Z,35.00
2019-06-15T03:59:40.203Z,29.60
2019-06-15T04:02:10.345Z,27.97
2019-06-15T04:04:41.855Z,30.27
2019-06-15T04:07:10.455Z,35.10
2019-06-15T04:09:42.263Z,33.30
2019-06-15T04:12:10.916Z,29.90
2019-06-15T04:14:39.572Z,32.40
2019-06-15T04:17:10.672Z,32.13
2019-06-15T04:19:39.393Z,32.60
2019-06-15T04:22:09.498Z,26.97
2019-06-15T04:24:39.614Z,27.77
2019-06-15T04:27:11.222Z,31.60
2019-06-15T04:29:39.881Z,26.73
2019-06-15T04:32:08.855Z,27.07
2019-06-15T04:34:40.768Z,25.47
2019-06-15T04:37:09.582Z,32.97
2019-06-15T04:39:38.341Z,34.57
2019-06-15T04:42:08.799Z,29.23
2019-06-15T04:44:38.248Z,35.07
2019-06-15T04:47:08.814Z,30.77
2019-06-15T04:49:40.718Z,22.97
2019-06-15T04:52:09.424Z,29.83
2019-06-15T04:54:39.592Z,24.17
2019-06-15T04:57:08.382Z,29.63
2019-06-15T04:59:38.760Z,31.23
2019-06-15T05:02:08.018Z,21.20
2019-06-15T05:04:39.314Z,21.60
2019-06-15T05:07:09.480Z,24.33
2019-06-15T05:09:40.054Z,24.93
2019-06-15T05:12:09.682Z,25.43
2019-06-15T05:14:41.067Z,28.80
2019-06-15T05:17:09.881Z,25.63
2019-06-15T05:19:38.686Z,23.83
2019-06-15T05:22:07.564Z,26.20
2019-06-15T05:24:36.498Z,25.70
2019-06-15T05:27:06.623Z,26.50
2019-06-15T05:29:35.667Z,20.27
2019-06-15T05:32:04.481Z,20.93
2019-06-15T05:34:33.172Z,21.67
2019-06-15T05:37:01.957Z,24.10
2019-06-15T05:39:30.619Z,22.97
2019-06-15T05:41:59.671Z,22.10
2019-06-15T05:44:28.272Z,19.17
2019-06-15T05:46:57.363Z,18.43
2019-06-15T05:49:26.135Z,21.87
2019-06-15T05:51:54.740Z,19.20
2019-06-15T05:54:23.472Z,15.27
2019-06-15T05:56:52.184Z,18.00
2019-06-15T05:59:20.895Z,22.03
2019-06-15T06:01:49.515Z,17.37
2019-06-15T06:04:18.329Z,15.93
2019-06-15T06:06:47.046Z,22.77
2019-06-15T06:09:15.826Z,23.30
2019-06-15T06:11:44.585Z,19.20
2019-06-15T06:14:13.613Z,17.13
2019-06-15T06:16:42.440Z,19.87
2019-06-15T06:19:11.160Z,15.27
2019-06-15T06:21:39.881Z,18.37
2019-06-15T06:24:08.617Z,17.40
2019-06-15T06:26:37.423Z,20.90
2019-06-15T06:29:06.156Z,13.87
2019-06-15T06:31:34.988Z,17.30
2019-06-15T06:34:04.124Z,17.00
2019-06-15T06:36:32.830Z,21.30
2019-06-15T06:39:01.558Z,16.83
2019-06-15T06:41:30.317Z,18.27
2019-06-15T06:43:58.987Z,21.73
2019-06-15T06:46:27.717Z,18.40
2019-06-15T06:48:56.541Z,15.20
2019-06-15T06:51:25.269Z,21.97
2019-06-15T06:53:54.526Z,15.77
2019-06-15T06:56:25.103Z,23.57
2019-06-15T06:58:55.589Z,19.13
2019-06-15T07:01:26.213Z,18.20
2019-06-15T07:03:55.241Z,22.20
2019-06-15T07:06:23.900Z,16.77
2019-06-15T07:08:52.789Z,18.17
2019-06-15T07:11:21.583Z,21.07
2019-06-15T07:13:50.312Z,22.30
2019-06-15T07:16:19.372Z,15.27
2019-06-15T07:18:48.138Z,14.27
2019-06-15T07:21:16.935Z,18.57
2019-06-15T07:23:45.673Z,19.63
2019-06-15T07:26:14.403Z,21.73
2019-06-15T07:28:43.136Z,15.23
2019-06-15T07:31:12.165Z,17.73
2019-06-15T07:33:40.878Z,18.73
2019-06-15T07:36:09.534Z,16.97
2019-06-15T07:38:38.568Z,20.77
2019-06-15T07:41:07.288Z,21.73
2019-06-15T07:43:38.893Z,25.77
2019-06-15T07:46:08.551Z,21.17
2019-06-15T07:48:37.265Z,16.77
2019-06-15T07:51:05.983Z,19.50
2019-06-15T07:53:34.805Z,20.30
2019-06-15T07:56:03.963Z,18.27
2019-06-15T07:58:32.689Z,22.60
2019-06-15T08:01:01.406Z,16.47
2019-06-15T08:03:30.011Z,22.13
2019-06-15T08:05:58.724Z,15.37
2019-06-15T08:08:27.442Z,18.63
2019-06-15T08:10:56.559Z,18.67
2019-06-15T08:13:25.234Z,19.67
2019-06-15T08:15:53.990Z,20.33
2019-06-15T08:18:22.699Z,13.93
2019-06-15T08:20:51.513Z,18.67
2019-06-15T08:23:20.224Z,19.67
2019-06-15T08:25:48.952Z,18.13
2019-06-15T08:28:17.733Z,27.33
2019-06-15T08:30:47.017Z,17.33
2019-06-15T08:33:15.758Z,24.50
2019-06-15T08:35:44.556Z,17.53
2019-06-15T08:38:13.314Z,20.97
2019-06-15T08:40:42.320Z,17.00
2019-06-15T08:43:11.141Z,19.53
2019-06-15T08:45:39.769Z,26.37
2019-06-15T08:48:11.039Z,18.47
2019-06-15T08:50:39.869Z,18.83
2019-06-15T08:53:08.572Z,18.17
2019-06-15T08:55:37.399Z,32.53
2019-06-15T08:58:06.128Z,20.90
2019-06-15T09:00:34.960Z,19.57
2019-06-15T09:03:03.683Z,17.43
2019-06-15T09:05:32.395Z,20.37
2019-06-15T09:08:01.318Z,18.60
2019-06-15T09:10:30.022Z,22.93
2019-06-15T09:12:58.734Z,23.40
2019-06-15T09:15:53.294Z,17.70
2019-06-15T09:18:23.050Z,20.60
2019-06-15T09:20:51.838Z,21.30
2019-06-15T09:23:20.969Z,22.13
2019-06-15T09:25:49.820Z,22.43
2019-06-15T09:28:18.526Z,20.00
2019-06-15T09:30:47.289Z,22.80
2019-06-15T09:33:15.982Z,16.47
2019-06-15T09:35:44.787Z,20.60
2019-06-15T09:38:13.602Z,17.90
2019-06-15T09:40:42.528Z,20.37
2019-06-15T09:43:11.230Z,19.43
2019-06-15T09:45:40.350Z,22.73
2019-06-15T09:48:10.572Z,20.13
2019-06-15T09:50:42.104Z,20.33
2019-06-15T09:53:11.218Z,20.40
2019-06-15T09:55:40.028Z,26.83
2019-06-15T09:58:08.749Z,18.70
2019-06-15T10:00:40.768Z,24.00
2019-06-15T10:03:10.157Z,20.80
2019-06-15T10:05:40.669Z,25.60
2019-06-15T10:08:09.501Z,18.03
2019-06-15T10:10:39.866Z,23.20
2019-06-15T10:13:08.549Z,23.00
2019-06-15T10:15:37.398Z,24.73
2019-06-15T10:18:06.107Z,32.83
2019-06-15T10:20:34.814Z,23.40
2019-06-15T10:23:03.631Z,20.33
2019-06-15T10:25:32.465Z,19.10
2019-06-15T10:28:01.473Z,23.80
2019-06-15T10:30:30.197Z,29.30
2019-06-15T10:32:59.030Z,17.83
2019-06-15T10:35:27.689Z,21.73
2019-06-15T10:37:56.367Z,20.20
2019-06-15T10:40:25.386Z,18.73
2019-06-15T10:42:54.429Z,21.43
2019-06-15T10:45:23.421Z,26.43
2019-06-15T10:47:52.237Z,22.30
2019-06-15T10:50:21.255Z,19.53
2019-06-15T10:52:50.068Z,19.37
2019-06-15T10:55:18.798Z,23.30
2019-06-15T10:57:47.641Z,22.73
2019-06-15T11:00:17.081Z,17.67
2019-06-15T11:02:45.836Z,22.33
2019-06-15T11:05:17.476Z,21.20
2019-06-15T11:07:46.529Z,29.17
2019-06-15T11:10:17.331Z,16.90
2019-06-15T11:12:47.124Z,20.23
2019-06-15T11:15:16.995Z,18.17
2019-06-15T11:17:46.471Z,21.40
2019-06-15T11:20:16.140Z,18.83
2019-06-15T11:22:45.537Z,21.53
2019-06-15T11:25:15.036Z,24.80
2019-06-15T11:27:44.564Z,19.60
2019-06-15T11:30:14.841Z,22.20
2019-06-15T11:32:44.619Z,20.37
2019-06-15T11:35:14.066Z,165.77
2019-06-15T11:37:43.067Z,26.50
2019-06-15T11:40:12.514Z,50.23
2019-06-15T11:42:42.496Z,82.63
2019-06-15T11:45:11.998Z,39.07
2019-06-15T11:47:41.220Z,18.57
2019-06-15T11:50:12.054Z,25.43
2019-06-15T11:52:41.499Z,25.07
2019-06-15T11:55:11.051Z,36.80
2019-06-15T11:57:40.103Z,20.50
2019-06-15T12:00:10.024Z,17.53
2019-06-15T12:02:40.787Z,19.43
2019-06-15T12:05:10.057Z,28.43
2019-06-15T12:07:40.773Z,20.57
2019-06-15T12:10:10.214Z,19.50
2019-06-15T12:12:40.704Z,22.17
2019-06-15T12:15:10.028Z,19.07
2019-06-15T12:17:40.605Z,24.07
2019-06-15T12:20:10.243Z,21.17
2019-06-15T12:22:42.400Z,21.00
2019-06-15T12:25:11.628Z,15.67
2019-06-15T12:27:41.121Z,17.30
2019-06-15T12:30:12.820Z,15.30
2019-06-15T12:32:42.201Z,16.97
2019-06-15T12:35:11.102Z,19.50
2019-06-15T12:37:39.814Z,15.63
2019-06-15T12:40:09.683Z,11.43
2019-06-15T12:42:42.560Z,18.70
2019-06-15T12:45:13.450Z,12.70
2019-06-15T12:47:42.774Z,23.20
2019-06-15T12:50:11.707Z,17.13
2019-06-15T12:52:42.775Z,13.30
2019-06-15T12:55:11.485Z,16.63
2019-06-15T12:57:40.325Z,15.97
2019-06-15T13:00:10.531Z,19.40
2019-06-15T13:02:42.363Z,13.00
2019-06-15T13:05:11.349Z,13.00
2019-06-15T13:07:40.117Z,12.67
2019-06-15T13:10:10.404Z,14.43
2019-06-15T13:12:42.208Z,15.90
2019-06-15T13:15:11.226Z,12.03
2019-06-15T13:17:39.937Z,14.20
2019-06-15T13:20:08.935Z,11.80
2019-06-15T13:22:40.852Z,11.20
2019-06-15T13:25:09.873Z,11.87
2019-06-15T13:27:38.584Z,12.93
2019-06-15T13:30:10.573Z,12.53
2019-06-15T13:32:42.150Z,17.47
2019-06-15T13:35:10.974Z,11.83
2019-06-15T13:37:42.325Z,9.70
2019-06-15T13:40:10.154Z,18.27
2019-06-15T13:42:40.498Z,12.33
2019-06-15T13:45:13.193Z,11.33
2019-06-15T13:47:41.961Z,15.67
2019-06-15T13:50:11.083Z,10.87
2019-06-15T13:52:40.008Z,11.80
2019-06-15T13:55:09.347Z,11.67
2019-06-15T13:57:39.507Z,17.23
2019-06-15T14:00:09.110Z,11.40
2019-06-15T14:02:37.876Z,7.13
2019-06-15T14:05:07.390Z,11.60
2019-06-15T14:07:38.975Z,7.67
2019-06-15T14:10:07.906Z,12.40
2019-06-15T14:12:39.934Z,12.53
2019-06-15T14:15:08.833Z,9.73
2019-06-15T14:17:40.614Z,13.03
2019-06-15T14:20:09.688Z,8.27
2019-06-15T14:22:41.533Z,9.70
2019-06-15T14:25:10.758Z,12.33
2019-06-15T14:27:39.474Z,15.97
2019-06-15T14:30:09.702Z,10.87
2019-06-15T14:32:41.436Z,15.10
2019-06-15T14:35:11.595Z,6.47
2019-06-15T14:37:40.305Z,18.07
2019-06-15T14:40:12.218Z,8.27
2019-06-15T14:42:40.933Z,9.00
2019-06-15T14:45:11.303Z,8.60
2019-06-15T14:47:40.025Z,13.63
2019-06-15T14:50:09.147Z,14.33
2019-06-15T14:52:39.312Z,13.13
2019-06-15T14:55:08.542Z,10.93
2019-06-15T14:57:37.468Z,6.67
2019-06-15T15:00:09.159Z,9.50
2019-06-15T15:02:39.542Z,12.40
2019-06-15T15:05:14.589Z,7.33
2019-06-15T15:07:41.694Z,7.17
2019-06-15T15:10:11.048Z,7.13
2019-06-15T15:12:41.821Z,7.63
2019-06-15T15:15:10.609Z,10.90
2019-06-15T15:17:39.314Z,11.90
2019-06-15T15:20:08.656Z,10.27
2019-06-15T15:22:37.569Z,13.70
2019-06-15T15:25:08.740Z,12.60
2019-06-15T15:27:40.435Z,7.60
2019-06-15T15:30:13.464Z,10.87
2019-06-15T15:32:42.219Z,7.57
2019-06-15T15:35:11.034Z,10.17
2019-06-15T15:37:39.742Z,13.00
2019-06-15T15:40:11.537Z,5.47
2019-06-15T15:42:40.226Z,17.67
2019-06-15T15:45:10.763Z,6.90
2019-06-15T15:47:39.459Z,14.57
2019-06-15T15:50:11.561Z,6.07
2019-06-15T15:52:40.277Z,12.57
2019-06-15T15:55:10.443Z,11.73
2019-06-15T15:57:42.019Z,6.37
2019-06-15T16:00:12.284Z,8.87
2019-06-15T16:02:52.061Z,10.90
2019-06-15T16:05:11.446Z,7.97
2019-06-15T16:07:40.071Z,12.90
2019-06-15T16:10:08.998Z,7.97
2019-06-15T16:12:37.719Z,12.97
2019-06-15T16:15:12.729Z,14.50
2019-06-15T16:17:41.332Z,10.17
2019-06-15T16:20:20.276Z,13.90
2019-06-15T16:22:49.002Z,13.40
2019-06-15T16:25:17.940Z,7.63
2019-06-15T16:27:46.662Z,7.73
2019-06-15T16:30:39.569Z,9.97
2019-06-15T16:33:00.506Z,11.33
2019-06-15T16:35:21.838Z,12.20
2019-06-15T16:37:50.559Z,12.60
2019-06-15T16:40:22.149Z,11.20
2019-06-15T16:42:50.855Z,17.73
2019-06-15T16:45:19.583Z,13.13
2019-06-15T16:47:48.407Z,14.67
2019-06-15T16:50:17.688Z,6.63
2019-06-15T16:52:46.986Z,9.47
2019-06-15T16:55:16.831Z,10.63
2019-06-15T16:57:46.633Z,11.37
2019-06-15T17:00:21.738Z,9.10
2019-06-15T17:02:50.855Z,9.27
2019-06-15T17:05:19.778Z,8.73
2019-06-15T17:07:48.669Z,11.80
2019-06-15T17:10:20.390Z,9.80
2019-06-15T17:12:49.213Z,7.57
2019-06-15T17:15:17.937Z,8.07
2019-06-15T17:17:46.751Z,8.97
2019-06-15T17:20:18.331Z,10.83
2019-06-15T17:22:47.350Z,10.93
2019-06-15T17:25:16.677Z,13.40
2019-06-15T17:27:46.938Z,9.03
2019-06-15T17:30:17.222Z,8.23
2019-06-15T17:32:46.009Z,9.30
2019-06-15T17:35:16.885Z,9.83
2019-06-15T17:37:47.029Z,6.87
2019-06-15T17:40:16.336Z,7.70
2019-06-15T17:42:45.080Z,12.00
2019-06-15T17:45:16.156Z,7.40
2019-06-15T17:47:46.674Z,12.90
2019-06-15T17:50:17.114Z,9.87
2019-06-15T17:52:46.822Z,9.00
2019-06-15T17:55:17.879Z,12.80
2019-06-15T17:57:46.601Z,10.50
2019-06-15T18:00:17.175Z,6.87
2019-06-15T18:02:46.215Z,6.60
2019-06-15T18:05:14.912Z,7.33
2019-06-15T18:07:43.728Z,7.17
2019-06-15T18:10:12.675Z,6.57
2019-06-15T18:12:41.532Z,9.30
2019-06-15T18:15:10.578Z,9.00
2019-06-15T18:17:42.474Z,7.07
2019-06-15T18:20:11.908Z,5.73
2019-06-15T18:22:40.721Z,14.90
2019-06-15T18:25:09.534Z,10.80
2019-06-15T18:27:39.563Z,7.80
2019-06-15T18:30:09.663Z,6.77
2019-06-15T18:32:38.473Z,5.20
2019-06-15T18:35:10.684Z,4.80
2019-06-15T18:37:39.418Z,7.17
2019-06-15T18:40:08.933Z,4.80
2019-06-15T18:42:37.754Z,4.73
2019-06-15T18:45:07.667Z,6.13
2019-06-15T18:47:39.556Z,6.70
2019-06-15T18:50:09.467Z,6.80
2019-06-15T18:52:41.574Z,7.60
2019-06-15T18:55:11.931Z,5.87
2019-06-15T18:57:40.746Z,6.87
2019-06-15T19:00:09.797Z,8.73
2019-06-15T19:02:38.475Z,4.23
2019-06-15T19:05:08.835Z,7.47
2019-06-15T19:07:40.829Z,5.67
2019-06-15T19:10:09.683Z,5.10
2019-06-15T19:12:41.436Z,4.70
2019-06-15T19:15:10.355Z,4.53
2019-06-15T19:17:41.842Z,5.50
2019-06-15T19:20:10.967Z,8.43
2019-06-15T19:22:39.694Z,7.60
2019-06-15T19:25:08.593Z,5.10
2019-06-15T19:27:37.320Z,4.07
2019-06-15T19:30:10.465Z,3.67
2019-06-15T19:32:42.341Z,5.23
2019-06-15T19:35:11.254Z,5.80
2019-06-15T19:37:39.970Z,4.90
2019-06-15T19:40:10.135Z,4.43
2019-06-15T19:42:40.370Z,5.30
2019-06-15T19:45:12.552Z,4.33
2019-06-15T19:47:41.287Z,4.87
2019-06-15T19:50:10.510Z,5.50
2019-06-15T19:52:42.190Z,8.43
2019-06-15T19:55:11.312Z,6.60
2019-06-15T19:57:40.055Z,4.17
2019-06-15T20:00:09.878Z,6.03
2019-06-15T20:02:39.143Z,8.23
2019-06-15T20:05:08.692Z,4.23
2019-06-15T20:07:37.586Z,8.30
2019-06-15T20:10:10.667Z,3.80
2019-06-15T20:12:39.637Z,5.07
2019-06-15T20:15:08.973Z,6.40
2019-06-15T20:17:39.799Z,6.57
2019-06-15T20:20:09.427Z,7.87
2019-06-15T20:22:39.569Z,9.13
2019-06-15T20:25:08.495Z,6.60
2019-06-15T20:27:37.725Z,10.10
2019-06-15T20:30:07.873Z,11.37
2019-06-15T20:32:39.447Z,7.60
2019-06-15T20:35:16.567Z,8.40
2019-06-15T20:37:40.078Z,7.33
2019-06-15T20:40:09.519Z,7.30
2019-06-15T20:42:41.416Z,6.87
2019-06-15T20:45:11.038Z,6.77
2019-06-15T20:47:39.757Z,7.37
2019-06-15T20:50:22.004Z,5.50
2019-06-15T20:52:42.206Z,5.80
2019-06-15T20:55:11.006Z,7.23
2019-06-15T20:57:39.715Z,8.37
2019-06-15T21:00:09.573Z,10.60
2019-06-15T21:02:38.837Z,8.90
2019-06-15T21:05:09.511Z,6.53
2019-06-15T21:07:39.595Z,6.63
2019-06-15T21:10:09.151Z,5.67
2019-06-15T21:12:37.999Z,7.60
2019-06-15T21:15:10.663Z,8.00
2019-06-15T21:17:39.686Z,6.97
2019-06-15T21:20:11.379Z,7.20
2019-06-15T21:22:40.043Z,5.70
2019-06-15T21:25:10.418Z,8.07
2019-06-15T21:27:42.177Z,5.70
2019-06-15T21:30:12.405Z,7.07
2019-06-15T21:32:41.197Z,8.60
2019-06-15T21:35:10.559Z,6.40
2019-06-15T21:37:42.243Z,9.00
2019-06-15T21:40:11.293Z,7.17
2019-06-15T21:42:40.080Z,7.23
2019-06-15T21:45:09.535Z,7.50
2019-06-15T21:47:39.739Z,7.40
2019-06-15T21:50:09.330Z,5.87
2019-06-15T21:52:38.110Z,5.60
2019-06-15T21:55:10.219Z,8.33
2019-06-15T21:57:40.487Z,5.27
2019-06-15T22:00:17.383Z,6.50
2019-06-15T22:02:47.108Z,5.50
2019-06-15T22:05:16.555Z,6.53
2019-06-15T22:07:47.683Z,8.03
2019-06-15T22:10:17.429Z,7.80
2019-06-15T22:12:46.157Z,5.07
2019-06-15T22:15:16.093Z,4.60
2019-06-15T22:17:45.237Z,13.20
2019-06-15T22:20:16.776Z,4.77
2019-06-15T22:22:46.891Z,4.47
2019-06-15T22:25:15.952Z,5.13
2019-06-15T22:27:46.825Z,5.90
2019-06-15T22:30:16.983Z,5.57
2019-06-15T22:32:47.210Z,4.57
2019-06-15T22:35:16.500Z,5.10
2019-06-15T22:37:46.742Z,10.83
2019-06-15T22:40:16.518Z,4.57
2019-06-15T22:42:47.048Z,4.70
2019-06-15T22:45:17.174Z,5.83
2019-06-15T22:47:46.749Z,3.80
2019-06-15T22:50:16.202Z,3.67
2019-06-15T22:52:47.147Z,4.17
2019-06-15T22:55:16.543Z,4.00
2019-06-15T22:57:46.077Z,3.33
2019-06-15T23:00:17.143Z,5.40
2019-06-15T23:02:46.141Z,6.50
2019-06-15T23:05:17.089Z,3.80
2019-06-15T23:07:47.267Z,4.43
2019-06-15T23:10:16.821Z,4.07
2019-06-15T23:12:46.443Z,7.50
2019-06-15T23:15:17.411Z,4.70
2019-06-15T23:17:46.698Z,5.37
2019-06-15T23:20:17.279Z,5.33
2019-06-15T23:22:46.771Z,3.70
2019-06-15T23:25:16.843Z,3.70
2019-06-15T23:27:46.915Z,2.23
2019-06-15T23:30:16.240Z,2.73
2019-06-15T23:32:46.819Z,3.40
2019-06-15T23:35:19.438Z,2.43
2019-06-15T23:37:48.220Z,4.60
2019-06-15T23:40:21.901Z,1.97
2019-06-15T23:42:51.298Z,1.47
2019-06-15T23:45:21.233Z,2.20
2019-06-15T23:47:50.252Z,1.10
2019-06-15T23:50:20.001Z,1.13
2019-06-15T23:52:49.134Z,1.10
2019-06-15T23:55:19.685Z,2.17
2019-06-15T23:57:48.414Z,2.10
